Map

Track Data

SID SEASON NUMBER BASIN SUBBASIN NAME ISO_TIME NATURE LAT LON WMO_WIND WMO_PRES WMO_AGENCY TRACK_TYPE DIST2LAND LANDFALL IFLAG USA_AGENCY USA_ATCF_ID USA_LAT USA_LON USA_RECORD USA_STATUS USA_WIND USA_PRES USA_SSHS USA_R34_NE USA_R34_SE USA_R34_SW USA_R34_NW USA_R50_NE USA_R50_SE USA_R50_SW USA_R50_NW USA_R64_NE USA_R64_SE USA_R64_SW USA_R64_NW USA_POCI USA_ROCI USA_RMW USA_EYE TOKYO_LAT TOKYO_LON TOKYO_GRADE TOKYO_WIND TOKYO_PRES TOKYO_R50_DIR TOKYO_R50_LONG TOKYO_R50_SHORT TOKYO_R30_DIR TOKYO_R30_LONG TOKYO_R30_SHORT TOKYO_LAND CMA_LAT CMA_LON CMA_CAT CMA_WIND CMA_PRES HKO_LAT HKO_LON HKO_CAT HKO_WIND HKO_PRES NEWDELHI_LAT NEWDELHI_LON NEWDELHI_GRADE NEWDELHI_WIND NEWDELHI_PRES NEWDELHI_CI NEWDELHI_DP NEWDELHI_POCI REUNION_LAT REUNION_LON REUNION_TYPE REUNION_WIND REUNION_PRES REUNION_TNUM REUNION_CI REUNION_RMW REUNION_R34_NE REUNION_R34_SE REUNION_R34_SW REUNION_R34_NW REUNION_R50_NE REUNION_R50_SE REUNION_R50_SW REUNION_R50_NW REUNION_R64_NE REUNION_R64_SE REUNION_R64_SW REUNION_R64_NW BOM_LAT BOM_LON BOM_TYPE BOM_WIND BOM_PRES BOM_TNUM BOM_CI BOM_RMW BOM_R34_NE BOM_R34_SE BOM_R34_SW BOM_R34_NW BOM_R50_NE BOM_R50_SE BOM_R50_SW BOM_R50_NW BOM_R64_NE BOM_R64_SE BOM_R64_SW BOM_R64_NW BOM_ROCI BOM_POCI BOM_EYE BOM_POS_METHOD BOM_PRES_METHOD NADI_LAT NADI_LON NADI_CAT NADI_WIND NADI_PRES WELLINGTON_LAT WELLINGTON_LON WELLINGTON_WIND WELLINGTON_PRES DS824_LAT DS824_LON DS824_STAGE DS824_WIND DS824_PRES TD9636_LAT TD9636_LON TD9636_STAGE TD9636_WIND TD9636_PRES TD9635_LAT TD9635_LON TD9635_WIND TD9635_PRES TD9635_ROCI NEUMANN_LAT NEUMANN_LON NEUMANN_CLASS NEUMANN_WIND NEUMANN_PRES MLC_LAT MLC_LON MLC_CLASS MLC_WIND MLC_PRES USA_GUST BOM_GUST BOM_GUST_PER REUNION_GUST REUNION_GUST_PER USA_SEAHGT USA_SEARAD_NE USA_SEARAD_SE USA_SEARAD_SW USA_SEARAD_NW STORM_SPEED STORM_DIR
1970148N14072 1970 45 NI AS NOT_NAMED 1970-05-28 06:00:00 TS 14.2000 71.6000 main 267 263 O________O____ jtwc_io IO011970 14.2000 71.6000 -1 14.2000 71.6000 TC 3 336
1970148N14072 1970 45 NI AS NOT_NAMED 1970-05-28 09:00:00 TS 14.3400 71.5400 main 273 266 P________P____ IO011970 14.3400 71.5400 -1 14.3400 71.5400 TC 3 343
1970148N14072 1970 45 NI AS NOT_NAMED 1970-05-28 12:00:00 TS 14.5000 71.5000 main 266 256 O________O____ jtwc_io IO011970 14.5000 71.5000 -1 14.5000 71.5000 TC 25 4 353
1970148N14072 1970 45 NI AS NOT_NAMED 1970-05-28 15:00:00 TS 14.6933 71.4933 main 256 248 P________PO___ IO011970 14.6925 71.4925 -1 14.6925 71.4925 TC 25 14.7000 71.5000 1 4 0
1970148N14072 1970 45 NI AS NOT_NAMED 1970-05-28 18:00:00 TS 14.8941 71.5000 main 248 241 O________OP___ jtwc_io IO011970 14.9000 71.5000 -1 14.9000 71.5000 TC 25 14.8703 71.5000 1 4 0
1970148N14072 1970 45 NI AS NOT_NAMED 1970-05-28 21:00:00 TS 15.0816 71.5000 main 241 232 P________PP___ IO011970 15.0925 71.5000 -1 15.0925 71.5000 TC 25 15.0525 71.5001 1 4 0
1970148N14072 1970 45 NI AS NOT_NAMED 1970-05-29 00:00:00 TS 15.2862 71.5000 main 232 222 O________OP___ jtwc_io IO011970 15.3000 71.5000 -1 15.3000 71.5000 TC 25 15.2585 71.5001 1 4 3
1970148N14072 1970 45 NI AS NOT_NAMED 1970-05-29 03:00:00 TS 15.5233 71.5050 main 222 207 P________PO___ IO011970 15.5350 71.5075 -1 15.5350 71.5075 TC 30 15.5000 71.5000 1 5 0
1970148N14072 1970 45 NI AS NOT_NAMED 1970-05-29 06:00:00 TS 15.7945 71.4994 main 207 197 O________OP___ jtwc_io IO011970 15.8000 71.5000 -1 15.8000 71.5000 TC 35 15.7834 71.4983 1 6 355
1970148N14072 1970 45 NI AS NOT_NAMED 1970-05-29 09:00:00 TS 16.0975 71.4625 main 197 195 P________PP___ IO011970 16.1000 71.4501 -1 16.1000 71.4501 TC 35 16.0925 71.4873 1 6 352
1970148N14072 1970 45 NI AS NOT_NAMED 1970-05-29 12:00:00 TS 16.4018 71.4192 main 202 202 O________OP___ jtwc_io IO011970 16.4000 71.4000 -1 16.4000 71.4000 TC 35 16.4053 71.4577 1 6 354
1970148N14072 1970 45 NI AS NOT_NAMED 1970-05-29 15:00:00 TS 16.6717 71.4099 main 202 196 P________PO___ IO011970 16.6575 71.4149 -1 16.6575 71.4149 TC 35 16.7000 71.4000 3 5 355
1970148N14072 1970 45 NI AS NOT_NAMED 1970-05-29 18:00:00 TS 16.9141 71.3827 main 196 192 O________OP___ jtwc_io IO011970 16.9000 71.4000 -1 16.9000 71.4000 TC 35 16.9422 71.3480 3 5 346
1970148N14072 1970 45 NI AS NOT_NAMED 1970-05-29 21:00:00 TS 17.1548 71.2839 main 196 196 P________PP___ IO011970 17.1500 71.2950 -1 17.1500 71.2950 TC 35 17.1645 71.2618 3 6 331
1970148N14072 1970 45 NI AS NOT_NAMED 1970-05-30 00:00:00 TS 17.3932 71.1066 main 210 210 O________OP___ jtwc_io IO011970 17.4000 71.1000 -1 17.4000 71.1000 TC 35 17.3795 71.1197 3 6 320
1970148N14072 1970 45 NI AS NOT_NAMED 1970-05-30 03:00:00 TS 17.6333 70.8583 main 222 222 P________PO___ IO011970 17.6500 70.8374 -1 17.6500 70.8374 TC 35 17.6000 70.9000 3 7 312
1970148N14072 1970 45 NI AS NOT_NAMED 1970-05-30 06:00:00 TS 17.8879 70.5239 main 255 255 O________OP___ jtwc_io IO011970 17.9000 70.5000 -1 17.9000 70.5000 TC 35 17.8636 70.5716 3 9 307
1970148N14072 1970 45 NI AS NOT_NAMED 1970-05-30 09:00:00 TS 18.1536 70.1278 main 289 277 P________PP___ IO011970 18.1650 70.1076 -1 18.1650 70.1076 TC 35 18.1306 70.1684 3 9 303
1970148N14072 1970 45 NI AS NOT_NAMED 1970-05-30 12:00:00 TS 18.3941 69.7103 main 281 276 O________OP___ jtwc_io IO011970 18.4000 69.7000 -1 18.4000 69.7000 TC 35 18.3823 69.7309 3 9 299
1970148N14072 1970 45 NI AS NOT_NAMED 1970-05-30 15:00:00 TS 18.5766 69.3282 main 282 279 P________PO___ IO011970 18.5649 69.3423 -1 18.5649 69.3423 TC 35 18.6000 69.3000 3 8 295
1970148N14072 1970 45 NI AS NOT_NAMED 1970-05-30 18:00:00 TS 18.7201 68.9851 main 291 288 O________OP___ jtwc_io IO011970 18.7000 69.0000 -1 18.7000 69.0000 TC 35 18.7603 68.9552 3 7 294
1970148N14072 1970 45 NI AS NOT_NAMED 1970-05-30 21:00:00 TS 18.8671 68.6455 main 297 297 P________PP___ IO011970 18.8574 68.6575 -1 18.8574 68.6575 TC 30 18.8866 68.6216 3 7 293
1970148N14072 1970 45 NI AS NOT_NAMED 1970-05-31 00:00:00 TS 18.9982 68.2924 main 307 307 O________OP___ jtwc_io IO011970 19.0000 68.3000 -1 19.0000 68.3000 TC 25 18.9946 68.2772 3 7 289
1970148N14072 1970 45 NI AS NOT_NAMED 1970-05-31 03:00:00 TS 19.0999 67.9149 main 328 328 P________PO___ IO011970 19.0999 67.9223 -1 19.0999 67.9223 TC 25 19.1000 67.9000 1 8 286
1970148N14072 1970 45 NI AS NOT_NAMED 1970-05-31 06:00:00 TS 19.2110 67.4897 main 350 350 O________OP___ jtwc_io IO011970 19.2000 67.5000 -1 19.2000 67.5000 TC 25 19.2330 67.4691 1 9 287
1970148N14072 1970 45 NI AS NOT_NAMED 1970-05-31 09:00:00 TS 19.3549 67.0109 main 373 373 P________PP___ IO011970 19.3500 67.0151 -1 19.3500 67.0151 TC 25 19.3648 67.0025 1 10 287
1970148N14072 1970 45 NI AS NOT_NAMED 1970-05-31 12:00:00 TS 19.4964 66.5032 main 400 400 O________OP___ jtwc_io IO011970 19.5000 66.5000 -1 19.5000 66.5000 TC 25 19.4892 66.5097 1 10 285
1970148N14072 1970 45 NI AS NOT_NAMED 1970-05-31 15:00:00 TS 19.6049 66.0049 main 426 426 P________PO___ IO011970 19.6073 66.0074 -1 19.6073 66.0074 TC 25 19.6000 66.0000 1 10 282
1970148N14072 1970 45 NI AS NOT_NAMED 1970-05-31 18:00:00 TS 19.6991 65.4978 main 457 457 O________OP___ jtwc_io IO011970 19.7000 65.5000 -1 19.7000 65.5000 TC 25 19.6972 65.4933 1 10 281
1970148N14072 1970 45 NI AS NOT_NAMED 1970-05-31 21:00:00 TS 19.8031 64.9575 main 491 491 P________PP___ IO011970 19.8150 64.9501 -1 19.8150 64.9501 TC 25 19.7795 64.9723 1 10 280
1970148N14072 1970 45 NI AS NOT_NAMED 1970-06-01 00:00:00 TS 19.8824 64.4134 main 538 497 O________OP___ jtwc_io IO011970 19.9000 64.4000 -1 19.9000 64.4000 TC 25 19.8471 64.4402 1 10 276
1970148N14072 1970 45 NI AS NOT_NAMED 1970-06-01 03:00:00 TS 19.9048 63.9048 main 497 453 P________PO___ IO011970 19.9072 63.9073 -1 19.9072 63.9073 TC 25 19.9000 63.9000 1 10 272
1970148N14072 1970 45 NI AS NOT_NAMED 1970-06-01 06:00:00 TS 19.9145 63.3789 main 453 394 O________OP___ jtwc_io IO011970 19.9000 63.4000 -1 19.9000 63.4000 TC 25 19.9434 63.3367 1 11 273
1970148N14072 1970 45 NI AS NOT_NAMED 1970-06-01 09:00:00 TS 19.9576 62.7900 main 394 339 P________PP___ IO011970 19.9501 62.8001 -1 19.9501 62.8001 TC 25 19.9726 62.7698 1 11 274
1970148N14072 1970 45 NI AS NOT_NAMED 1970-06-01 12:00:00 TS 19.9968 62.2060 main 339 294 O________OP___ jtwc_io IO011970 20.0000 62.2000 -1 20.0000 62.2000 TC 25 19.9904 62.2180 1 10 273
1970148N14072 1970 45 NI AS NOT_NAMED 1970-06-01 15:00:00 TS 20.0049 61.6800 main 294 252 P________PO___ IO011970 20.0073 61.6699 -1 20.0073 61.6699 TC 25 20.0000 61.7000 1 9 270
1970148N14072 1970 45 NI AS NOT_NAMED 1970-06-01 18:00:00 TS 20.0021 61.2171 main 252 221 O________OP___ jtwc_io IO011970 20.0000 61.2000 -1 20.0000 61.2000 TC 25 20.0062 61.2511 1 8 270
1970148N14072 1970 45 NI AS NOT_NAMED 1970-06-01 21:00:00 TS 20.0019 60.8066 main 221 193 P________PP___ IO011970 19.9997 60.7925 -1 19.9997 60.7925 TC 25 20.0062 60.8349 1 8 270
1970148N14072 1970 45 NI AS NOT_NAMED 1970-06-02 00:00:00 TS 20.0010 60.4087 main 193 156 O________OP___ jtwc_io IO011970 20.0000 60.4000 -1 20.0000 60.4000 TC 25 20.0031 60.4262 1 8 270
1970148N14072 1970 45 NI AS NOT_NAMED 1970-06-02 03:00:00 TS 19.9999 59.9767 main 156 113 P________PO___ IO011970 19.9999 59.9650 -1 19.9999 59.9650 TC 25 20.0000 60.0000 1 8 270
1970148N14072 1970 45 NI AS NOT_NAMED 1970-06-02 06:00:00 TS 19.9996 59.5149 main 113 76 O________OP___ jtwc_io IO011970 20.0000 59.5000 -1 20.0000 59.5000 TC 25 19.9989 59.5372 1 9 270
1970148N14072 1970 45 NI AS NOT_NAMED 1970-06-02 09:00:00 TS 19.9999 59.0225 main 68 35 P________PP___ IO011970 20.0003 59.0075 -1 20.0003 59.0075 TC 25 19.9993 59.0426 1 9 270
1970148N14072 1970 45 NI AS NOT_NAMED 1970-06-02 12:00:00 TS 20.0000 58.5133 main 35 30 O________OP___ jtwc_io IO011970 20.0000 58.5000 -1 20.0000 58.5000 TC 25 20.0000 58.5266 1 10 270
1970148N14072 1970 45 NI AS NOT_NAMED 1970-06-02 15:00:00 NR 20.0000 58.0000 main 30 __________O___ IO011970 -1 TC 20.0000 58.0000 1 10 270

About IBTrACS Database

This database is a web-friendly format of International Best Track Archive for Climate Stewardship (IBTrACS), a global best track data archive curated by NOAA dating back to 1842.

Updated: 2021-11-26